Time;durP1;ratioP1;P1;durP2;ratioP2;P2;SDS_P1;SDS_P2;PMS_P1;PMS_P2;Temp;Humidity;BMP_temperature;BMP_pressure;BME280_temperature;BME280_humidity;BME280_pressure;Samples;Min_cycle;Max_cycle;Signal;HPM_P1;HPM_P2
2023/11/15 00:00:47;;;;;;;7.40;3.47;;;10.90;99.90;;;;;;5071775;28;20411;-68
2023/11/15 00:03:12;;;;;;;7.57;4.27;;;10.90;99.90;;;;;;5071957;28;20770;-68
2023/11/15 00:05:38;;;;;;;8.87;4.00;;;10.90;99.90;;;;;;5071682;28;20229;-68
2023/11/15 00:08:04;;;;;;;4.83;3.40;;;10.90;99.90;;;;;;5071712;28;20249;-67
2023/11/15 00:10:31;;;;;;;10.10;4.07;;;10.90;99.90;;;;;;5071803;28;20621;-68
2023/11/15 00:12:57;;;;;;;3.57;3.27;;;10.90;99.90;;;;;;5071740;28;20245;-68
2023/11/15 00:15:23;;;;;;;11.10;5.00;;;10.80;99.90;;;;;;5071647;28;20855;-67
2023/11/15 00:17:48;;;;;;;6.23;3.97;;;10.80;99.90;;;;;;5071791;28;20212;-67
2023/11/15 00:20:15;;;;;;;6.53;4.03;;;10.90;99.90;;;;;;5071695;28;20265;-68
2023/11/15 00:22:41;;;;;;;11.10;3.53;;;11.00;99.90;;;;;;5071698;28;20173;-67
2023/11/15 00:25:07;;;;;;;13.50;3.73;;;11.00;99.90;;;;;;5071761;28;20459;-68
2023/11/15 00:27:33;;;;;;;6.90;3.97;;;11.00;99.90;;;;;;5075801;28;20899;-68
2023/11/15 00:29:59;;;;;;;4.73;3.23;;;11.00;99.90;;;;;;5075564;28;20447;-67
2023/11/15 00:32:24;;;;;;;4.80;4.20;;;11.00;99.90;;;;;;5075779;28;20228;-68
2023/11/15 00:34:50;;;;;;;11.03;4.20;;;11.00;99.90;;;;;;5075577;28;20802;-68
2023/11/15 00:37:16;;;;;;;6.47;3.17;;;11.10;99.90;;;;;;5075482;28;20185;-67
2023/11/15 00:39:41;;;;;;;11.80;3.10;;;11.00;99.90;;;;;;5075393;28;20284;-67
2023/11/15 00:42:08;;;;;;;5.20;2.47;;;11.00;99.90;;;;;;5075457;28;20209;-67
2023/11/15 00:44:34;;;;;;;4.73;2.97;;;10.90;99.90;;;;;;5074019;28;20174;-67
2023/11/15 00:46:59;;;;;;;6.77;2.83;;;10.90;99.90;;;;;;5075470;28;20424;-67
2023/11/15 00:49:25;;;;;;;6.83;2.57;;;10.90;99.90;;;;;;5075304;28;20452;-67
2023/11/15 00:51:51;;;;;;;9.23;2.40;;;10.90;99.90;;;;;;5075354;28;20173;-68
2023/11/15 00:54:17;;;;;;;10.43;3.10;;;10.90;99.90;;;;;;5075103;28;20709;-67
2023/11/15 00:56:42;;;;;;;12.27;3.50;;;10.80;99.90;;;;;;5075309;28;20487;-67
2023/11/15 00:59:09;;;;;;;5.17;2.37;;;10.90;99.90;;;;;;5075055;28;20252;-67
2023/11/15 01:01:36;;;;;;;11.90;3.80;;;10.90;99.90;;;;;;5075238;28;20158;-67
2023/11/15 01:04:05;;;;;;;4.97;2.90;;;10.90;99.90;;;;;;5074824;28;20396;-67
2023/11/15 01:06:31;;;;;;;5.53;2.67;;;11.00;99.90;;;;;;5073709;28;20547;-67
2023/11/15 01:08:57;;;;;;;10.73;3.33;;;11.00;99.90;;;;;;5074773;28;20428;-67
2023/11/15 01:11:26;;;;;;;13.20;4.13;;;11.00;99.90;;;;;;5075010;28;20801;-68
2023/11/15 01:13:53;;;;;;;7.97;2.60;;;11.00;99.90;;;;;;5074706;28;20396;-67
2023/11/15 01:16:22;;;;;;;4.97;2.60;;;11.10;99.90;;;;;;5074893;28;20404;-68
2023/11/15 01:18:48;;;;;;;6.63;3.40;;;11.10;99.90;;;;;;5074716;28;20874;-68
2023/11/15 01:21:14;;;;;;;4.13;2.70;;;11.10;99.90;;;;;;5074828;28;20440;-68
2023/11/15 01:23:39;;;;;;;9.57;3.73;;;11.20;99.90;;;;;;5074581;28;20412;-67
2023/11/15 01:26:05;;;;;;;5.60;2.77;;;11.20;99.90;;;;;;5074588;28;20202;-67
2023/11/15 01:28:31;;;;;;;6.37;3.30;;;11.30;99.90;;;;;;5074574;28;20190;-68
2023/11/15 01:30:57;;;;;;;7.40;2.70;;;11.30;99.90;;;;;;5074609;28;20400;-68
2023/11/15 01:33:22;;;;;;;5.10;3.30;;;11.30;99.90;;;;;;5074548;28;20400;-68
2023/11/15 01:35:48;;;;;;;8.23;2.70;;;11.30;99.90;;;;;;5074354;28;20691;-67
2023/11/15 01:38:16;;;;;;;5.07;3.43;;;11.30;99.90;;;;;;5073245;28;20170;-67
2023/11/15 01:40:42;;;;;;;8.17;3.37;;;11.30;99.90;;;;;;5074423;28;20174;-68
2023/11/15 01:43:09;;;;;;;7.87;2.70;;;11.40;99.90;;;;;;5074375;28;20426;-67
2023/11/15 01:45:35;;;;;;;5.57;2.93;;;11.40;99.90;;;;;;5074170;28;20813;-68
2023/11/15 01:48:12;;;;;;;5.67;3.03;;;11.50;99.90;;;;;;5074247;28;20447;-67
2023/11/15 01:50:37;;;;;;;6.47;2.43;;;11.50;99.90;;;;;;5074136;28;20442;-67
2023/11/15 01:53:03;;;;;;;7.50;3.00;;;11.50;99.90;;;;;;5073805;28;20424;-68
2023/11/15 01:55:30;;;;;;;10.70;3.60;;;11.50;99.90;;;;;;5073330;28;20182;-68
2023/11/15 01:57:56;;;;;;;7.33;3.20;;;11.50;99.90;;;;;;5074136;28;20193;-67
2023/11/15 02:00:22;;;;;;;7.20;3.00;;;11.50;99.90;;;;;;5074020;28;20413;-67
2023/11/15 02:02:48;;;;;;;6.30;2.97;;;11.50;99.90;;;;;;5074015;28;20416;-67
2023/11/15 02:05:14;;;;;;;4.80;2.80;;;11.50;99.90;;;;;;5073747;28;20525;-68
2023/11/15 02:07:42;;;;;;;9.30;2.57;;;11.50;99.90;;;;;;5074035;28;20249;-68
2023/11/15 02:10:08;;;;;;;5.57;2.70;;;11.60;99.90;;;;;;5073787;28;20186;-67
2023/11/15 02:12:34;;;;;;;5.57;3.50;;;11.60;99.90;;;;;;5073612;28;20491;-68
2023/11/15 02:15:00;;;;;;;6.63;3.33;;;11.60;99.90;;;;;;5073606;28;20923;-68
2023/11/15 02:17:26;;;;;;;14.10;2.80;;;11.50;99.90;;;;;;5073863;28;20174;-68
2023/11/15 02:19:52;;;;;;;4.53;2.97;;;11.50;99.90;;;;;;5073616;28;20669;-67
2023/11/15 02:22:18;;;;;;;9.77;3.30;;;11.50;99.90;;;;;;5073618;28;20404;-67
2023/11/15 02:24:44;;;;;;;7.40;2.73;;;11.60;99.90;;;;;;5073309;28;20257;-68
2023/11/15 02:27:10;;;;;;;6.73;3.00;;;11.60;99.90;;;;;;5073649;28;20838;-68
2023/11/15 02:29:36;;;;;;;6.57;2.90;;;11.60;99.90;;;;;;5073915;28;20424;-68
2023/11/15 02:32:02;;;;;;;6.23;2.43;;;11.60;99.90;;;;;;5073389;28;20480;-68
2023/11/15 02:34:27;;;;;;;8.80;3.10;;;11.50;99.90;;;;;;5073272;28;20625;-67
2023/11/15 02:36:53;;;;;;;10.67;3.90;;;11.60;99.90;;;;;;5073152;28;20245;-68
2023/11/15 02:39:19;;;;;;;5.17;2.07;;;11.60;99.90;;;;;;5073095;28;20193;-68
2023/11/15 02:41:45;;;;;;;6.87;2.50;;;11.60;99.90;;;;;;5073223;28;20205;-68
2023/11/15 02:44:10;;;;;;;5.33;3.37;;;11.70;99.90;;;;;;5073047;28;21005;-67
2023/11/15 02:46:36;;;;;;;5.00;2.43;;;11.60;99.90;;;;;;5073150;28;20276;-67
2023/11/15 02:49:02;;;;;;;10.27;3.33;;;11.70;99.90;;;;;;5072651;28;20272;-67
2023/11/15 02:51:28;;;;;;;3.43;2.33;;;11.70;99.90;;;;;;5073082;28;20170;-68
2023/11/15 02:53:54;;;;;;;3.53;2.57;;;11.70;99.90;;;;;;5072749;28;20420;-68
2023/11/15 02:56:20;;;;;;;5.40;2.97;;;11.70;99.90;;;;;;5072960;28;20189;-68
2023/11/15 02:58:45;;;;;;;10.50;3.30;;;11.70;99.90;;;;;;5072669;28;20452;-67
2023/11/15 03:01:11;;;;;;;6.20;2.57;;;11.70;99.90;;;;;;5072745;28;20182;-68
2023/11/15 03:03:37;;;;;;;8.20;2.77;;;11.70;99.90;;;;;;5072905;28;20224;-68
2023/11/15 03:06:03;;;;;;;3.10;2.80;;;11.60;99.90;;;;;;5072546;28;20197;-68
2023/11/15 03:08:30;;;;;;;4.40;1.80;;;11.60;99.90;;;;;;5072562;28;20435;-68
2023/11/15 03:10:56;;;;;;;4.17;2.53;;;11.60;99.90;;;;;;5072609;28;20923;-68
2023/11/15 03:13:21;;;;;;;2.80;2.07;;;11.60;99.90;;;;;;5072464;28;20401;-68
2023/11/15 03:15:48;;;;;;;4.53;3.93;;;11.70;99.90;;;;;;5072526;28;20177;-68
2023/11/15 03:18:14;;;;;;;6.47;2.60;;;11.70;99.90;;;;;;5072458;28;20570;-68
2023/11/15 03:20:39;;;;;;;5.30;2.57;;;11.70;99.90;;;;;;5072341;28;20408;-68
2023/11/15 03:23:05;;;;;;;5.50;2.60;;;11.60;99.90;;;;;;5072390;28;20824;-68
2023/11/15 03:25:30;;;;;;;5.27;2.53;;;11.60;99.90;;;;;;5072255;28;20209;-68
2023/11/15 03:27:56;;;;;;;12.00;2.57;;;11.60;99.90;;;;;;5072187;28;20657;-67
2023/11/15 03:30:22;;;;;;;7.37;2.60;;;11.60;99.90;;;;;;5072230;28;20163;-68
2023/11/15 03:32:47;;;;;;;4.73;2.50;;;11.50;99.90;;;;;;5072423;28;20649;-68
2023/11/15 03:35:13;;;;;;;4.90;2.67;;;11.50;99.90;;;;;;5072022;28;20173;-68
2023/11/15 03:37:38;;;;;;;5.20;3.17;;;11.50;99.90;;;;;;5072172;28;20173;-68
2023/11/15 03:40:08;;;;;;;9.30;2.10;;;11.40;99.90;;;;;;5072075;28;20563;-68
2023/11/15 03:42:35;;;;;;;4.43;2.83;;;11.30;99.90;;;;;;5072112;28;20560;-68
2023/11/15 03:45:01;;;;;;;6.60;3.00;;;11.30;99.90;;;;;;5071925;28;20459;-68
2023/11/15 03:47:26;;;;;;;15.53;3.17;;;11.20;99.90;;;;;;5072143;28;20404;-67
2023/11/15 03:49:52;;;;;;;8.17;3.57;;;11.20;99.90;;;;;;5071780;28;20186;-68
2023/11/15 03:52:17;;;;;;;8.93;3.17;;;11.20;99.90;;;;;;5071724;28;20166;-68
2023/11/15 03:54:43;;;;;;;6.87;2.53;;;11.30;99.90;;;;;;5071972;28;20147;-68
2023/11/15 03:57:11;;;;;;;8.33;2.90;;;11.30;99.90;;;;;;5071940;28;20241;-68
2023/11/15 03:59:37;;;;;;;5.40;2.30;;;11.30;99.90;;;;;;5071476;28;20185;-68
2023/11/15 04:02:02;;;;;;;6.27;2.50;;;11.30;99.90;;;;;;5071719;28;20408;-67
2023/11/15 04:04:28;;;;;;;7.57;2.90;;;11.30;99.90;;;;;;5071785;28;20645;-68
2023/11/15 04:06:53;;;;;;;5.27;2.50;;;11.20;99.90;;;;;;5053918;28;20198;-67
2023/11/15 04:09:19;;;;;;;6.70;2.27;;;11.20;99.90;;;;;;5071684;28;20200;-68
2023/11/15 04:11:44;;;;;;;5.43;2.40;;;11.40;99.90;;;;;;5071841;28;20166;-68
2023/11/15 04:14:10;;;;;;;6.97;2.50;;;11.40;99.90;;;;;;5053737;28;20185;-68
2023/11/15 04:16:35;;;;;;;4.70;3.43;;;11.40;99.90;;;;;;5071764;28;20674;-68
2023/11/15 04:19:01;;;;;;;4.40;2.40;;;11.30;99.90;;;;;;5071692;28;20213;-67
2023/11/15 04:21:26;;;;;;;6.33;2.87;;;11.30;99.90;;;;;;5071717;28;20520;-67
2023/11/15 04:23:54;;;;;;;5.53;3.10;;;11.30;99.90;;;;;;5071255;28;20245;-67
2023/11/15 04:26:21;;;;;;;7.80;2.17;;;11.40;99.90;;;;;;5071390;28;20194;-67
2023/11/15 04:28:47;;;;;;;8.47;2.97;;;11.40;99.90;;;;;;5053675;28;20440;-68
2023/11/15 04:31:12;;;;;;;8.53;2.47;;;11.30;99.90;;;;;;5071802;28;20400;-67
2023/11/15 04:33:38;;;;;;;6.03;2.50;;;11.20;99.90;;;;;;5071547;28;20202;-68
2023/11/15 04:36:04;;;;;;;12.50;3.40;;;11.20;99.90;;;;;;5071399;28;20166;-68
2023/11/15 04:38:30;;;;;;;17.40;3.47;;;11.20;99.90;;;;;;5071425;28;20186;-68
2023/11/15 04:40:56;;;;;;;13.83;2.60;;;11.20;99.90;;;;;;5071427;28;20743;-67
2023/11/15 04:43:23;;;;;;;8.50;2.93;;;11.10;99.90;;;;;;5071510;28;20682;-68
2023/11/15 04:45:50;;;;;;;5.80;2.83;;;11.10;99.90;;;;;;5071288;28;20531;-68
2023/11/15 04:48:15;;;;;;;4.80;2.23;;;11.10;99.90;;;;;;5071305;28;20427;-67
2023/11/15 04:50:41;;;;;;;8.53;2.60;;;11.10;99.90;;;;;;5071285;28;20915;-68
2023/11/15 04:53:08;;;;;;;5.87;2.70;;;11.10;99.90;;;;;;5071428;28;20197;-68
2023/11/15 04:55:34;;;;;;;12.57;2.67;;;11.00;99.90;;;;;;5071189;28;20197;-68
2023/11/15 04:58:00;;;;;;;7.77;3.20;;;11.00;99.90;;;;;;5071352;28;20895;-68
2023/11/15 05:00:26;;;;;;;4.37;2.30;;;11.00;99.90;;;;;;5071241;28;20408;-68
2023/11/15 05:02:52;;;;;;;4.40;2.20;;;11.10;99.90;;;;;;5071337;28;20827;-68
2023/11/15 05:05:18;;;;;;;6.03;2.20;;;11.10;99.90;;;;;;5070974;28;20194;-68
2023/11/15 05:07:45;;;;;;;7.00;1.90;;;11.10;99.90;;;;;;5071309;28;20407;-68
2023/11/15 05:10:11;;;;;;;6.10;2.53;;;11.10;99.90;;;;;;5071297;28;21010;-68
2023/11/15 05:12:37;;;;;;;13.73;3.67;;;11.10;99.90;;;;;;5073957;28;20488;-68
2023/11/15 05:15:04;;;;;;;6.30;2.10;;;11.10;99.90;;;;;;5056623;28;20438;-68
2023/11/15 05:17:30;;;;;;;7.07;2.63;;;11.10;99.90;;;;;;5074776;28;20630;-67
2023/11/15 05:19:56;;;;;;;5.40;2.60;;;11.20;99.90;;;;;;5074655;28;20457;-67
2023/11/15 05:22:21;;;;;;;10.23;2.20;;;11.10;99.90;;;;;;5074797;28;20170;-68
2023/11/15 05:24:47;;;;;;;7.00;3.07;;;11.10;99.90;;;;;;5074525;28;20198;-68
2023/11/15 05:27:12;;;;;;;9.87;2.90;;;11.00;99.90;;;;;;5074712;28;20652;-68
2023/11/15 05:29:38;;;;;;;9.37;2.30;;;11.00;99.90;;;;;;5074546;28;20527;-67
2023/11/15 05:32:04;;;;;;;3.00;2.30;;;11.00;99.90;;;;;;5074698;28;20162;-68
2023/11/15 05:34:29;;;;;;;16.27;2.97;;;11.00;99.90;;;;;;5073883;28;20678;-68
2023/11/15 05:36:55;;;;;;;6.50;2.23;;;11.00;99.90;;;;;;5056577;28;20648;-68
2023/11/15 05:39:22;;;;;;;6.97;2.37;;;10.90;99.90;;;;;;5074301;28;20240;-68
2023/11/15 05:41:48;;;;;;;5.67;3.20;;;11.00;99.90;;;;;;5074532;28;20257;-68
2023/11/15 05:44:14;;;;;;;5.33;2.80;;;11.00;99.90;;;;;;5074338;28;20491;-67
2023/11/15 05:46:39;;;;;;;15.80;2.83;;;10.90;99.90;;;;;;5074395;28;20452;-68
2023/11/15 05:49:05;;;;;;;19.20;3.10;;;10.90;99.90;;;;;;5056198;28;20657;-67
2023/11/15 05:51:30;;;;;;;9.23;2.70;;;10.90;99.90;;;;;;5074309;28;20175;-68
2023/11/15 05:53:56;;;;;;;4.17;2.10;;;10.90;99.90;;;;;;5073962;28;20182;-67
2023/11/15 05:56:22;;;;;;;9.50;3.20;;;11.00;99.90;;;;;;5074214;28;20253;-68
2023/11/15 05:58:47;;;;;;;7.37;2.60;;;10.90;99.90;;;;;;5074178;28;20269;-68
2023/11/15 06:01:13;;;;;;;14.13;2.43;;;11.00;99.90;;;;;;5074040;28;20174;-68
2023/11/15 06:03:38;;;;;;;8.90;4.70;;;10.90;99.90;;;;;;5073984;28;20174;-68
2023/11/15 06:06:04;;;;;;;11.17;3.50;;;10.90;99.90;;;;;;5073778;28;20644;-68
2023/11/15 06:08:30;;;;;;;11.87;3.80;;;10.90;99.90;;;;;;5073941;28;20561;-68
2023/11/15 06:10:55;;;;;;;5.00;2.70;;;10.80;99.90;;;;;;5056077;28;20412;-68
2023/11/15 06:13:21;;;;;;;7.50;2.57;;;11.00;99.90;;;;;;5073869;28;20162;-68
2023/11/15 06:15:46;;;;;;;20.37;4.50;;;10.90;99.90;;;;;;5073817;28;20166;-68
2023/11/15 06:18:12;;;;;;;5.50;3.00;;;11.00;99.90;;;;;;5073651;28;20192;-68
2023/11/15 06:20:40;;;;;;;9.47;2.93;;;11.00;99.90;;;;;;5073716;28;20173;-68
2023/11/15 06:23:06;;;;;;;7.10;2.97;;;10.80;99.90;;;;;;5073031;28;20196;-68
2023/11/15 06:25:32;;;;;;;9.00;3.20;;;10.90;99.90;;;;;;5073401;28;20480;-68
2023/11/15 06:28:03;;;;;;;4.90;3.13;;;10.90;99.90;;;;;;5073527;28;20600;-68
2023/11/15 06:30:29;;;;;;;9.57;2.73;;;10.90;99.90;;;;;;5073499;28;20443;-68
2023/11/15 06:32:55;;;;;;;2.90;2.20;;;10.90;99.90;;;;;;5073397;28;20397;-67
2023/11/15 06:35:20;;;;;;;8.07;3.60;;;10.90;99.90;;;;;;5073207;28;20929;-68
2023/11/15 06:37:49;;;;;;;8.00;3.10;;;10.90;99.90;;;;;;5073380;28;20178;-68
2023/11/15 06:40:15;;;;;;;7.53;3.80;;;11.00;99.90;;;;;;5073215;28;20333;-68
2023/11/15 06:42:42;;;;;;;4.33;2.60;;;11.00;99.90;;;;;;5073309;28;20436;-68
2023/11/15 06:45:08;;;;;;;11.13;3.87;;;11.10;99.90;;;;;;5073046;28;20482;-67
2023/11/15 06:47:35;;;;;;;6.37;3.20;;;11.10;99.90;;;;;;5073121;28;20439;-68
2023/11/15 06:50:02;;;;;;;7.97;2.73;;;11.10;99.90;;;;;;5073049;28;20428;-68
2023/11/15 06:52:28;;;;;;;4.40;3.90;;;11.20;99.90;;;;;;5072862;28;20416;-68
2023/11/15 06:54:53;;;;;;;7.57;2.87;;;11.20;99.90;;;;;;5072862;28;20389;-68
2023/11/15 06:57:19;;;;;;;8.43;3.23;;;11.20;99.90;;;;;;5072790;28;20166;-67
2023/11/15 06:59:45;;;;;;;7.93;3.90;;;11.20;99.90;;;;;;5072855;28;20224;-67
2023/11/15 07:02:11;;;;;;;7.60;2.90;;;11.20;99.90;;;;;;5072901;28;20641;-68
2023/11/15 07:04:37;;;;;;;9.47;3.43;;;11.20;99.90;;;;;;5072702;28;20289;-68
2023/11/15 07:07:03;;;;;;;7.53;2.47;;;11.30;99.90;;;;;;5072723;28;20556;-67
2023/11/15 07:09:28;;;;;;;9.20;3.20;;;11.30;99.90;;;;;;5072616;28;20182;-67
2023/11/15 07:11:54;;;;;;;13.10;3.57;;;11.30;99.90;;;;;;5072711;28;20163;-67
2023/11/15 07:14:20;;;;;;;10.13;2.83;;;11.30;99.90;;;;;;5072594;28;20580;-68
2023/11/15 07:16:55;;;;;;;5.87;3.20;;;11.40;99.90;;;;;;5072615;28;20166;-68
2023/11/15 07:19:24;;;;;;;11.37;3.27;;;11.40;99.90;;;;;;5072485;28;20423;-67
2023/11/15 07:21:52;;;;;;;6.77;2.97;;;11.50;99.90;;;;;;5054542;28;20433;-68
2023/11/15 07:24:19;;;;;;;17.53;3.77;;;11.40;99.90;;;;;;5072355;28;20401;-67
2023/11/15 07:26:45;;;;;;;10.47;2.77;;;11.50;99.90;;;;;;5072363;28;20814;-68
2023/11/15 07:29:13;;;;;;;9.23;2.53;;;11.50;99.90;;;;;;5072363;28;20431;-68
2023/11/15 07:31:40;;;;;;;6.57;3.10;;;11.50;99.90;;;;;;5072362;28;20793;-68
2023/11/15 07:34:08;;;;;;;8.93;2.80;;;11.60;99.90;;;;;;5072120;28;20401;-67
2023/11/15 07:36:34;;;;;;;5.47;2.37;;;11.60;99.90;;;;;;5071630;28;20427;-68
2023/11/15 07:39:01;;;;;;;7.27;3.27;;;11.70;99.90;;;;;;5072222;28;20428;-68
2023/11/15 07:41:27;;;;;;;6.03;2.70;;;11.80;99.90;;;;;;5072224;28;20405;-67
2023/11/15 07:43:56;;;;;;;5.43;2.83;;;11.80;99.90;;;;;;5072033;28;20416;-68
2023/11/15 07:46:24;;;;;;;7.73;2.70;;;11.90;99.90;;;;;;5072030;28;20816;-68
2023/11/15 07:48:50;;;;;;;7.83;2.67;;;11.90;99.90;;;;;;5072098;28;20499;-68
2023/11/15 07:51:17;;;;;;;8.37;2.60;;;11.90;99.90;;;;;;5072164;28;20408;-67
2023/11/15 07:53:42;;;;;;;6.63;2.93;;;11.80;99.90;;;;;;5071619;28;20420;-67
2023/11/15 07:56:08;;;;;;;11.20;2.80;;;11.80;99.90;;;;;;5072036;28;20521;-68
2023/11/15 07:58:34;;;;;;;8.03;2.80;;;11.80;99.90;;;;;;5071903;28;20257;-68
2023/11/15 08:01:00;;;;;;;6.13;2.40;;;11.90;99.90;;;;;;5071945;28;20484;-68
2023/11/15 08:03:28;;;;;;;10.40;2.83;;;12.00;99.90;;;;;;5072007;28;20629;-68
2023/11/15 08:05:55;;;;;;;7.47;2.87;;;12.20;99.90;;;;;;5071745;28;20197;-67
2023/11/15 08:08:24;;;;;;;5.00;2.40;;;12.40;99.90;;;;;;5071922;28;20444;-67
2023/11/15 08:10:50;;;;;;;12.83;3.73;;;12.60;99.90;;;;;;5071850;28;20762;-68
2023/11/15 08:13:19;;;;;;;10.30;2.90;;;12.80;99.90;;;;;;5071897;28;20401;-68
2023/11/15 08:15:48;;;;;;;9.80;3.03;;;13.00;99.90;;;;;;5071626;28;20411;-68
2023/11/15 08:18:14;;;;;;;5.90;2.00;;;13.10;99.90;;;;;;5071758;28;20416;-68
2023/11/15 08:20:42;;;;;;;5.97;2.23;;;13.30;99.90;;;;;;5071757;28;20412;-68
2023/11/15 08:23:12;;;;;;;9.73;2.73;;;13.30;99.90;;;;;;5071817;28;20927;-68
2023/11/15 08:25:50;;;;;;;12.13;3.10;;;13.20;99.90;;;;;;5071533;28;20862;-68
2023/11/15 08:28:20;;;;;;;17.23;4.10;;;13.10;99.90;;;;;;5071641;28;20453;-67
2023/11/15 08:30:45;;;;;;;8.00;2.27;;;13.00;99.90;;;;;;5071591;28;20400;-67
2023/11/15 08:33:16;;;;;;;9.63;6.90;;;12.80;99.90;;;;;;5053338;28;20496;-67
2023/11/15 08:35:43;;;;;;;11.17;2.63;;;12.90;99.90;;;;;;5071401;28;20177;-67
2023/11/15 08:38:09;;;;;;;6.53;2.60;;;12.70;99.90;;;;;;5071548;28;20903;-68
2023/11/15 08:40:37;;;;;;;6.77;1.80;;;12.90;99.90;;;;;;5053472;28;20423;-68
2023/11/15 08:43:03;;;;;;;6.60;2.20;;;13.20;99.90;;;;;;5071418;28;20404;-68
2023/11/15 08:45:28;;;;;;;4.80;1.77;;;13.60;99.90;;;;;;5071123;28;20860;-68
2023/11/15 08:47:57;;;;;;;8.27;2.57;;;14.20;99.90;;;;;;5074811;28;20166;-68
2023/11/15 08:50:25;;;;;;;7.63;2.97;;;14.60;99.90;;;;;;5075419;28;20162;-67
2023/11/15 08:52:51;;;;;;;2.80;1.80;;;15.40;99.90;;;;;;5075309;28;20891;-67
2023/11/15 08:55:17;;;;;;;6.40;1.87;;;16.30;99.90;;;;;;5075363;28;20531;-67
2023/11/15 08:57:43;;;;;;;5.80;2.10;;;17.30;99.90;;;;;;5075355;28;20162;-67
2023/11/15 09:00:12;;;;;;;4.43;1.70;;;18.10;99.90;;;;;;5075148;28;20962;-67
2023/11/15 09:02:46;;;;;;;4.73;2.13;;;18.80;99.90;;;;;;5057283;28;20170;-67
2023/11/15 09:05:13;;;;;;;6.23;2.00;;;19.50;99.90;;;;;;5075014;28;20444;-68
2023/11/15 09:07:39;;;;;;;11.93;1.90;;;20.10;99.90;;;;;;5075151;28;20462;-67
2023/11/15 09:10:08;;;;;;;6.23;2.13;;;20.80;99.90;;;;;;5057018;28;20490;-67
2023/11/15 09:12:37;;;;;;;5.47;3.03;;;21.10;99.90;;;;;;5075087;28;20159;-67
2023/11/15 09:15:11;;;;;;;2.23;1.50;;;20.90;99.90;;;;;;5074912;28;20404;-67
2023/11/15 09:17:46;;;;;;;10.50;2.50;;;20.50;99.90;;;;;;5074976;28;20806;-67
2023/11/15 09:20:26;;;;;;;8.40;2.67;;;20.30;99.90;;;;;;5074819;28;20416;-67
2023/11/15 09:22:53;;;;;;;3.43;2.10;;;19.60;99.90;;;;;;5074907;28;20397;-68
2023/11/15 09:25:22;;;;;;;5.93;1.90;;;18.50;99.90;;;;;;5056678;28;20982;-68
2023/11/15 09:27:49;;;;;;;3.83;1.93;;;18.10;99.90;;;;;;5074809;28;20403;-68
2023/11/15 09:30:14;;;;;;;3.23;1.57;;;18.50;99.90;;;;;;5074590;28;20942;-68
2023/11/15 09:32:41;;;;;;;4.87;1.63;;;18.80;99.90;;;;;;5074557;28;20397;-69
2023/11/15 09:35:10;;;;;;;2.77;1.40;;;18.90;99.90;;;;;;5074557;28;20541;-69
2023/11/15 09:37:37;;;;;;;3.30;1.93;;;19.00;99.90;;;;;;5074612;28;20424;-68
2023/11/15 09:40:04;;;;;;;5.47;1.50;;;18.80;99.90;;;;;;5074407;28;20423;-68
2023/11/15 09:42:31;;;;;;;5.00;1.40;;;18.50;99.90;;;;;;5074514;28;20409;-68
2023/11/15 09:44:57;;;;;;;4.20;1.77;;;18.10;99.90;;;;;;5074133;28;20415;-68
2023/11/15 09:47:23;;;;;;;4.30;1.67;;;18.00;99.90;;;;;;5074047;28;20946;-68
2023/11/15 09:49:50;;;;;;;4.27;1.80;;;18.00;99.90;;;;;;5073805;28;20791;-68
2023/11/15 09:52:16;;;;;;;6.77;1.70;;;17.90;99.90;;;;;;5073968;28;20752;-68
2023/11/15 09:54:45;;;;;;;5.30;1.73;;;18.30;99.90;;;;;;5074144;28;20392;-68
2023/11/15 09:57:11;;;;;;;5.80;1.40;;;18.40;99.90;;;;;;5074247;28;20202;-68
2023/11/15 09:59:40;;;;;;;6.40;1.77;;;18.30;99.90;;;;;;5073140;28;20475;-68
2023/11/15 10:02:06;;;;;;;3.37;1.90;;;18.20;99.90;;;;;;5074163;28;20166;-68
2023/11/15 10:04:31;;;;;;;3.73;3.20;;;18.10;99.90;;;;;;5073936;28;20411;-68
2023/11/15 10:06:58;;;;;;;7.10;1.90;;;17.60;99.90;;;;;;5073932;28;20201;-68
2023/11/15 10:09:33;;;;;;;5.90;1.20;;;17.20;99.90;;;;;;5073831;28;20265;-68
2023/11/15 10:12:02;;;;;;;2.40;1.50;;;16.90;99.90;;;;;;5073875;28;20496;-68
2023/11/15 10:14:29;;;;;;;4.23;2.10;;;16.70;99.90;;;;;;5055670;28;20423;-68
2023/11/15 10:16:55;;;;;;;3.50;1.33;;;16.30;99.90;;;;;;5073821;28;20444;-68
2023/11/15 10:19:26;;;;;;;5.93;1.50;;;15.90;99.90;;;;;;5073659;28;20435;-68
2023/11/15 10:22:04;;;;;;;3.13;1.53;;;15.40;99.90;;;;;;5055735;28;20426;-68
2023/11/15 10:24:31;;;;;;;6.60;1.93;;;14.90;99.90;;;;;;5073587;28;20448;-68
2023/11/15 10:27:10;;;;;;;4.60;1.77;;;14.50;99.90;;;;;;5073561;28;20815;-68
2023/11/15 10:29:39;;;;;;;6.20;2.23;;;14.30;99.90;;;;;;5073495;28;20919;-68
2023/11/15 10:32:05;;;;;;;4.70;1.97;;;14.10;99.90;;;;;;5073502;28;20397;-68
2023/11/15 10:34:32;;;;;;;5.00;1.57;;;14.10;99.90;;;;;;5073386;28;20982;-68
2023/11/15 10:37:09;;;;;;;3.60;2.17;;;14.10;99.90;;;;;;5055484;28;20443;-68
2023/11/15 10:39:43;;;;;;;11.43;2.70;;;14.50;99.90;;;;;;5073300;28;20435;-68
2023/11/15 10:42:12;;;;;;;5.97;1.80;;;14.90;99.90;;;;;;5055435;28;20412;-68
2023/11/15 10:44:38;;;;;;;2.40;1.50;;;15.10;99.90;;;;;;5073169;28;20407;-68
2023/11/15 10:47:05;;;;;;;7.60;1.80;;;15.00;99.90;;;;;;5073160;28;20451;-68
2023/11/15 10:49:38;;;;;;;2.13;1.57;;;14.90;99.90;;;;;;5073027;28;20943;-68
2023/11/15 10:52:05;;;;;;;6.20;3.10;;;15.20;99.90;;;;;;5073043;28;20388;-68
2023/11/15 10:54:32;;;;;;;6.70;2.93;;;15.40;99.90;;;;;;5072963;28;20401;-68
2023/11/15 10:57:00;;;;;;;6.80;2.40;;;15.70;99.90;;;;;;5072954;28;20443;-68
2023/11/15 10:59:26;;;;;;;10.10;2.13;;;15.70;99.90;;;;;;5072897;28;20502;-68
2023/11/15 11:01:54;;;;;;;10.17;2.30;;;15.80;99.90;;;;;;5054908;28;20462;-68
2023/11/15 11:04:21;;;;;;;3.93;1.60;;;15.70;99.90;;;;;;5072682;28;20409;-68
2023/11/15 11:07:24;;;;;;;5.30;2.30;;;15.90;99.90;;;;;;5072764;28;20820;-68
2023/11/15 11:09:59;;;;;;;5.43;1.93;;;16.10;99.90;;;;;;5072438;28;20420;-68
2023/11/15 11:12:25;;;;;;;4.07;1.70;;;16.40;99.90;;;;;;5072693;28;20384;-68
2023/11/15 11:15:16;;;;;;;8.87;2.60;;;16.80;99.90;;;;;;5072424;28;20942;-68
2023/11/15 11:17:42;;;;;;;8.07;1.80;;;17.00;99.90;;;;;;5054691;28;20409;-68
2023/11/15 11:20:25;;;;;;;5.07;1.60;;;17.20;99.90;;;;;;5072478;28;21014;-68
2023/11/15 11:23:20;;;;;;;2.60;1.43;;;17.20;99.90;;;;;;5072546;28;20412;-68
2023/11/15 11:25:46;;;;;;;8.20;1.63;;;16.90;99.90;;;;;;5072364;28;20440;-69
2023/11/15 11:28:13;;;;;;;4.80;1.77;;;16.60;99.90;;;;;;5054404;28;20504;-68
2023/11/15 11:30:40;;;;;;;9.57;1.83;;;16.40;99.90;;;;;;5072380;28;20462;-68
2023/11/15 11:33:15;;;;;;;4.70;1.83;;;16.10;99.90;;;;;;5072344;28;20401;-69
2023/11/15 11:35:43;;;;;;;4.70;1.50;;;15.80;99.90;;;;;;5072168;28;20986;-68
2023/11/15 11:38:13;;;;;;;4.40;1.70;;;15.80;99.90;;;;;;5072214;28;20408;-68
2023/11/15 11:40:40;;;;;;;5.50;1.73;;;15.90;99.90;;;;;;5072210;28;20404;-68
2023/11/15 11:43:19;;;;;;;6.20;1.70;;;16.20;99.90;;;;;;5072197;28;20432;-68
2023/11/15 11:45:46;;;;;;;2.13;1.60;;;16.70;99.90;;;;;;5072046;28;20439;-68
2023/11/15 11:48:38;;;;;;;5.03;1.87;;;16.80;99.90;;;;;;5072021;28;20733;-68
2023/11/15 11:51:05;;;;;;;4.77;2.03;;;16.50;99.90;;;;;;5067507;28;20412;-68
2023/11/15 11:53:46;;;;;;;4.70;1.50;;;16.00;99.90;;;;;;5071929;28;20473;-68
2023/11/15 11:56:13;;;;;;;4.07;1.67;;;15.50;99.90;;;;;;5071981;28;20413;-68
2023/11/15 11:58:41;;;;;;;4.70;1.67;;;15.70;99.90;;;;;;5071927;28;20486;-68
2023/11/15 12:01:09;;;;;;;4.50;1.80;;;15.80;99.90;;;;;;5071707;28;20477;-68
2023/11/15 12:03:39;;;;;;;4.80;2.10;;;16.30;99.90;;;;;;5071968;28;20401;-69
2023/11/15 12:06:09;;;;;;;4.83;1.80;;;16.80;99.90;;;;;;5071751;28;20444;-68
2023/11/15 12:08:47;;;;;;;8.77;2.37;;;16.90;99.90;;;;;;5071908;28;20420;-69
2023/11/15 12:11:17;;;;;;;4.40;1.77;;;16.80;99.90;;;;;;5071845;28;21145;-68
2023/11/15 12:13:47;;;;;;;4.60;1.60;;;16.70;99.90;;;;;;5071726;28;20474;-68
2023/11/15 12:16:24;;;;;;;7.20;3.43;;;16.50;99.90;;;;;;5071845;28;20425;-68
2023/11/15 12:18:57;;;;;;;1.37;1.10;;;16.20;99.90;;;;;;5071766;28;20507;-68
2023/11/15 12:21:24;;;;;;;3.53;1.70;;;16.30;99.90;;;;;;5070896;28;20509;-68
2023/11/15 12:23:50;;;;;;;7.20;1.97;;;16.30;99.90;;;;;;5071581;28;20400;-68
2023/11/15 12:26:15;;;;;;;4.70;2.10;;;16.20;99.90;;;;;;5071305;28;20798;-68
2023/11/15 12:28:41;;;;;;;5.67;2.30;;;16.40;99.90;;;;;;5071695;28;20448;-68
2023/11/15 12:31:08;;;;;;;1.73;1.10;;;16.80;99.90;;;;;;5071633;28;20166;-68
2023/11/15 12:33:35;;;;;;;3.63;1.97;;;17.20;99.90;;;;;;5071680;28;20510;-68
2023/11/15 12:36:02;;;;;;;9.00;1.90;;;17.40;99.90;;;;;;5071468;28;20490;-68
2023/11/15 12:38:29;;;;;;;8.63;1.73;;;17.40;99.90;;;;;;5071607;28;20445;-68
2023/11/15 12:41:03;;;;;;;2.67;1.60;;;17.20;99.90;;;;;;5071508;28;20458;-67
2023/11/15 12:43:30;;;;;;;2.50;1.47;;;17.20;99.90;;;;;;5071594;28;20416;-68
2023/11/15 12:45:56;;;;;;;3.43;1.43;;;17.20;99.90;;;;;;5071360;28;20440;-68